Portada
METAR-TAF:

METAR-TAF

Aeroports :

Pohnpei, Micronèsia

latitud: 06-59N, longitud: 158-12E, altitud: 2 m

Observació

L'informe es va fer fa 20 hores i 14 minuts, a les 14:50 UTC
Vent calma
Temperatura 29°C
Humitat 84%
Pressió 1011 hPa
Visibilitat: 24.1 km
Cel ennuvolat a una alçada de 1800 ft
Cel cobert a una alçada de 30000 ft

METAR: PTPN 261450Z 14000KT 15SM BKN018 OVC300 29/26 A2985 RMK LAST

Hora: 22:04 (11:04 UTC)

Pronòstic

L'informe es va fer fa 23 hores i 41 minuts, a les 11:23 UTC
Pronòstic vàlid del 26 a les 12 UTC al 27 a les 12 UTC
Vent 5 kt del Sud-Est
Visibilitat: 10 km
Núvols disperses a una alçada de 1800 ft
Cel ennuvolat a una alçada de 13000 ft
xàfecs en les proximitats
Temporalment
l' 26 a les 12 UTC al 26 a les 14 UTC
Cel ennuvolat a una alçada de 1800 ft
xàfecs de pluja

TAF: PTPN 261123Z 2612/2712 13005KT P6SM VCSH SCT018 BKN130 TEMPO 2612/2614 -SHRA BKN018

Observacions i pronòstics meteorològics de més de 4000 aeroports (METAR i TAF).

Les estacions disponibles són els punts grocs i vermells al mapa.

Posi el ratolí al punt desitjat per veure el nom de l'estació.

Feu clic per veure les observacions i els pronòstics meteorològics.

Per canviar el mapa: feu clic els botons verds amb una creu de color negre per apropar; al botó verd amb un guió per allunyar la imatge; o en les fletxes verdes per a mapes adjacents.


METAR-TAF: